Janika — V2YK9 — position and weather

sailwx.info

Track history (hours):
 
Tides and Currents Weather Stations Pressure Air Temp Water Temp Dewpoint Dewpoint Depression Visibility Wind Speed Wind Dir Waves Ship Positions

Janika

Last reported at 2016-Feb-11 00:26 UTC. Time now 2016-Feb-14 23:08 UTC.
Position N 16°20' W 061°58'.

; draft 2.6 m.

Type: Tug. MMSI: 305732000.

Date/timePositionNaut miles runAvg speedWind from/ knotsBaromVisibWave heightAir tempDewpointWater temp
2016-Feb-11 00:26N 16°20' W 061°58'8 8.8
2016-Feb-10 23:33N 16°28' W 061°57'9 8.6
2016-Feb-10 22:34N 16°36' W 061°57'9 9.1
2016-Feb-10 21:33N 16°45' W 061°56'9 9.0
2016-Feb-10 20:33N 16°54' W 061°57'10 9.5
2016-Feb-10 19:33N 17°04' W 061°56'8 8.3
2016-Feb-10 18:33N 17°11' W 061°51'6 6.2
2016-Feb-10 17:33N 17°08' W 061°46'0 0.1
2016-Feb-10 16:33N 17°07' W 061°46'0 0.0
2016-Feb-10 15:33N 17°07' W 061°46'0 0.0
2016-Feb-10 14:33N 17°07' W 061°46'0 0.0
2016-Feb-10 13:33N 17°07' W 061°46'0 0.0
2016-Feb-10 12:33N 17°07' W 061°46'0 0.0
2016-Feb-10 11:33N 17°07' W 061°46'0 0.0
2016-Feb-10 10:33N 17°07' W 061°46'0 0.0
2016-Feb-10 09:33N 17°07' W 061°46'0 0.0
2016-Feb-10 08:33N 17°07' W 061°46'0 0.0
2016-Feb-10 07:33N 17°07' W 061°46'0 0.0
2016-Feb-10 06:34N 17°07' W 061°46'0 0.0
2016-Feb-10 05:34N 17°07' W 061°46'0 0.0
2016-Feb-10 04:33N 17°07' W 061°46'0 0.0
2016-Feb-10 03:33N 17°07' W 061°46'0 0.0
2016-Feb-10 02:33N 17°07' W 061°46'0 0.0
2016-Feb-10 01:33N 17°07' W 061°46'0 0.0
2016-Feb-10 00:33N 17°07' W 061°46'0 0.0
2016-Feb-09 23:34N 17°07' W 061°46'0 0.0
2016-Feb-09 22:34N 17°07' W 061°46'0 0.0
2016-Feb-09 21:34N 17°07' W 061°46'0 0.0
2016-Feb-09 20:34N 17°07' W 061°46'0 0.0
2016-Feb-09 19:34N 17°07' W 061°46'0 0.0
2016-Feb-09 18:34N 17°07' W 061°46'0 0.0
2016-Feb-09 17:34N 17°07' W 061°46'0 0.0
2016-Feb-09 16:34N 17°07' W 061°46'0 0.0
2016-Feb-09 15:33N 17°07' W 061°46'0 0.0
2016-Feb-09 14:33N 17°07' W 061°46'0 0.0
2016-Feb-09 13:33N 17°07' W 061°46'0 0.0
2016-Feb-09 12:33N 17°07' W 061°46'0 0.0
2016-Feb-09 11:34N 17°07' W 061°46'0 0.0
2016-Feb-09 10:33N 17°07' W 061°46'0 0.0
2016-Feb-09 09:33N 17°07' W 061°46'0 0.0
2016-Feb-09 08:33N 17°07' W 061°46'0 0.0
2016-Feb-09 07:33N 17°07' W 061°46'0 0.0
2016-Feb-09 06:34N 17°07' W 061°46'0 0.0
2016-Feb-09 05:34N 17°07' W 061°46'0 0.0
2016-Feb-09 04:33N 17°07' W 061°46'0 0.0
2016-Feb-09 03:33N 17°07' W 061°46'0 0.0
2016-Feb-09 02:34N 17°07' W 061°46'0 0.0
2016-Feb-09 01:33N 17°07' W 061°46'0 0.0
2016-Feb-09 00:33N 17°07' W 061°46'0 0.0
2016-Feb-08 23:33N 17°07' W 061°46'0 0.0
2016-Feb-08 22:33N 17°07' W 061°46'0 0.0
2016-Feb-08 21:33N 17°07' W 061°46'0 0.0
2016-Feb-08 20:34N 17°07' W 061°46'0 0.0
2016-Feb-08 19:33N 17°07' W 061°46'0 0.0
2016-Feb-08 18:34N 17°07' W 061°46'0 0.0
2016-Feb-08 17:33N 17°07' W 061°46'0 0.0
2016-Feb-08 16:34N 17°07' W 061°46'0 0.0
2016-Feb-08 15:34N 17°07' W 061°46'0 0.0
2016-Feb-08 14:34N 17°07' W 061°46'0 0.0
2016-Feb-08 13:34N 17°07' W 061°46'0 0.0
2016-Feb-08 12:34N 17°07' W 061°46'0 0.0
2016-Feb-08 11:33N 17°07' W 061°46'0 0.0
2016-Feb-08 10:33N 17°07' W 061°46'0 0.0
2016-Feb-08 09:33N 17°07' W 061°46'0 0.0
2016-Feb-08 08:33N 17°07' W 061°46'0 0.0
2016-Feb-08 07:33N 17°07' W 061°46'0 0.0
2016-Feb-08 06:34N 17°07' W 061°46'0 0.0
2016-Feb-08 05:34N 17°07' W 061°46'0 0.0
2016-Feb-08 04:33N 17°07' W 061°46'0 0.0
2016-Feb-08 03:34N 17°07' W 061°46'0 0.0
2016-Feb-08 02:33N 17°07' W 061°46'0 0.0
2016-Feb-08 00:18N 17°07' W 061°46'0 0.0
2016-Feb-07 23:33N 17°07' W 061°46'0 0.0
2016-Feb-07 22:33N 17°07' W 061°46'0 0.0
2016-Feb-07 21:33N 17°07' W 061°46'  
2016-Feb-03 12:34N 17°07' W 061°46'0 0.0
2016-Feb-03 11:33N 17°07' W 061°46'0 0.0
2016-Feb-03 10:33N 17°07' W 061°46'0 0.0
2016-Feb-03 09:32N 17°07' W 061°46'0 0.0
2016-Feb-03 08:33N 17°07' W 061°46'0 0.0
2016-Feb-03 07:33N 17°07' W 061°46'0 0.0
2016-Feb-03 06:34N 17°07' W 061°46'0 0.0
2016-Feb-03 05:33N 17°07' W 061°46'0 0.0
2016-Feb-03 04:33N 17°07' W 061°46'0 0.0
2016-Feb-03 03:33N 17°07' W 061°46'0 0.0
2016-Feb-03 02:33N 17°07' W 061°46'0 0.0
2016-Feb-03 01:33N 17°07' W 061°46'0 0.0
2016-Feb-03 00:34N 17°07' W 061°46'0 0.0
2016-Feb-02 23:34N 17°07' W 061°46'0 0.0
2016-Feb-02 22:33N 17°07' W 061°46'0 0.0
2016-Feb-02 21:34N 17°07' W 061°46'0 0.0
2016-Feb-02 20:34N 17°07' W 061°46'0 0.0
2016-Feb-02 19:34N 17°07' W 061°46'0 0.0
2016-Feb-02 18:33N 17°07' W 061°46'0 0.0
2016-Feb-02 17:34N 17°07' W 061°46'0 0.0
2016-Feb-02 16:33N 17°07' W 061°46'0 0.0
2016-Feb-02 15:34N 17°07' W 061°46'0 0.0
2016-Feb-02 14:34N 17°07' W 061°46'0 0.0
2016-Feb-02 13:33N 17°07' W 061°46'0 0.0
2016-Feb-02 12:33N 17°07' W 061°46'0 0.0
2016-Feb-02 11:34N 17°07' W 061°46'0 0.0
2016-Feb-02 10:33N 17°07' W 061°46'0 0.0
2016-Feb-02 09:34N 17°07' W 061°46'0 0.0
2016-Feb-02 08:33N 17°07' W 061°46'0 0.0
2016-Feb-02 07:33N 17°07' W 061°46'0 0.0
2016-Feb-02 06:33N 17°07' W 061°46'0 0.0
2016-Feb-02 05:33N 17°07' W 061°46'0 0.0
2016-Feb-02 04:33N 17°07' W 061°46'0 0.0
2016-Feb-02 03:33N 17°07' W 061°46'0 0.0
2016-Feb-02 02:33N 17°07' W 061°46'0 0.0
2016-Feb-02 01:33N 17°07' W 061°46'0 0.0
2016-Feb-02 00:33N 17°07' W 061°46'0 0.0
2016-Feb-01 23:34N 17°07' W 061°46'0 0.0
2016-Feb-01 22:33N 17°07' W 061°46'0 0.0
2016-Feb-01 21:34N 17°07' W 061°46'0 0.0
2016-Feb-01 20:33N 17°07' W 061°46'0 0.0
2016-Feb-01 19:34N 17°07' W 061°46'0 0.0
2016-Feb-01 18:33N 17°07' W 061°46'0 0.0
2016-Feb-01 17:34N 17°07' W 061°46'0 0.0
2016-Feb-01 16:34N 17°07' W 061°46'0 0.0
2016-Feb-01 14:10N 17°07' W 061°46'0 0.0
2016-Feb-01 02:06N 17°07' W 061°46'0 0.0
2016-Feb-01 01:33N 17°07' W 061°46'  
Track history (hours):
 
Tides and Currents Weather Stations Pressure Air Temp Water Temp Dewpoint Dewpoint Depression Visibility Wind Speed Wind Dir Waves Ship Positions

Janika

Last reported at 2016-Feb-11 00:26 UTC. Time now 2016-Feb-14 23:08 UTC.
Position N 16°20' W 061°58'.

; draft 2.6 m.

Type: Tug. MMSI: 305732000.

Date/timePositionNaut miles runAvg speedWind from/ knotsBaromVisibWave heightAir tempDewpointWater temp
2016-Feb-11 00:26N 16°20' W 061°58'8 8.8
2016-Feb-10 23:33N 16°28' W 061°57'9 8.6
2016-Feb-10 22:34N 16°36' W 061°57'9 9.1
2016-Feb-10 21:33N 16°45' W 061°56'9 9.0
2016-Feb-10 20:33N 16°54' W 061°57'10 9.5
2016-Feb-10 19:33N 17°04' W 061°56'8 8.3
2016-Feb-10 18:33N 17°11' W 061°51'6 6.2
2016-Feb-10 17:33N 17°08' W 061°46'0 0.1
2016-Feb-10 16:33N 17°07' W 061°46'0 0.0
2016-Feb-10 15:33N 17°07' W 061°46'0 0.0
2016-Feb-10 14:33N 17°07' W 061°46'0 0.0
2016-Feb-10 13:33N 17°07' W 061°46'0 0.0
2016-Feb-10 12:33N 17°07' W 061°46'0 0.0
2016-Feb-10 11:33N 17°07' W 061°46'0 0.0
2016-Feb-10 10:33N 17°07' W 061°46'0 0.0
2016-Feb-10 09:33N 17°07' W 061°46'0 0.0
2016-Feb-10 08:33N 17°07' W 061°46'0 0.0
2016-Feb-10 07:33N 17°07' W 061°46'0 0.0
2016-Feb-10 06:34N 17°07' W 061°46'0 0.0
2016-Feb-10 05:34N 17°07' W 061°46'0 0.0
2016-Feb-10 04:33N 17°07' W 061°46'0 0.0
2016-Feb-10 03:33N 17°07' W 061°46'0 0.0
2016-Feb-10 02:33N 17°07' W 061°46'0 0.0
2016-Feb-10 01:33N 17°07' W 061°46'0 0.0
2016-Feb-10 00:33N 17°07' W 061°46'0 0.0
2016-Feb-09 23:34N 17°07' W 061°46'0 0.0
2016-Feb-09 22:34N 17°07' W 061°46'0 0.0
2016-Feb-09 21:34N 17°07' W 061°46'0 0.0
2016-Feb-09 20:34N 17°07' W 061°46'0 0.0
2016-Feb-09 19:34N 17°07' W 061°46'0 0.0
2016-Feb-09 18:34N 17°07' W 061°46'0 0.0
2016-Feb-09 17:34N 17°07' W 061°46'0 0.0
2016-Feb-09 16:34N 17°07' W 061°46'0 0.0
2016-Feb-09 15:33N 17°07' W 061°46'0 0.0
2016-Feb-09 14:33N 17°07' W 061°46'0 0.0
2016-Feb-09 13:33N 17°07' W 061°46'0 0.0
2016-Feb-09 12:33N 17°07' W 061°46'0 0.0
2016-Feb-09 11:34N 17°07' W 061°46'0 0.0
2016-Feb-09 10:33N 17°07' W 061°46'0 0.0
2016-Feb-09 09:33N 17°07' W 061°46'0 0.0
2016-Feb-09 08:33N 17°07' W 061°46'0 0.0
2016-Feb-09 07:33N 17°07' W 061°46'0 0.0
2016-Feb-09 06:34N 17°07' W 061°46'0 0.0
2016-Feb-09 05:34N 17°07' W 061°46'0 0.0
2016-Feb-09 04:33N 17°07' W 061°46'0 0.0
2016-Feb-09 03:33N 17°07' W 061°46'0 0.0
2016-Feb-09 02:34N 17°07' W 061°46'0 0.0
2016-Feb-09 01:33N 17°07' W 061°46'0 0.0
2016-Feb-09 00:33N 17°07' W 061°46'0 0.0
2016-Feb-08 23:33N 17°07' W 061°46'0 0.0
2016-Feb-08 22:33N 17°07' W 061°46'0 0.0
2016-Feb-08 21:33N 17°07' W 061°46'0 0.0
2016-Feb-08 20:34N 17°07' W 061°46'0 0.0
2016-Feb-08 19:33N 17°07' W 061°46'0 0.0
2016-Feb-08 18:34N 17°07' W 061°46'0 0.0
2016-Feb-08 17:33N 17°07' W 061°46'0 0.0
2016-Feb-08 16:34N 17°07' W 061°46'0 0.0
2016-Feb-08 15:34N 17°07' W 061°46'0 0.0
2016-Feb-08 14:34N 17°07' W 061°46'0 0.0
2016-Feb-08 13:34N 17°07' W 061°46'0 0.0
2016-Feb-08 12:34N 17°07' W 061°46'0 0.0
2016-Feb-08 11:33N 17°07' W 061°46'0 0.0
2016-Feb-08 10:33N 17°07' W 061°46'0 0.0
2016-Feb-08 09:33N 17°07' W 061°46'0 0.0
2016-Feb-08 08:33N 17°07' W 061°46'0 0.0
2016-Feb-08 07:33N 17°07' W 061°46'0 0.0
2016-Feb-08 06:34N 17°07' W 061°46'0 0.0
2016-Feb-08 05:34N 17°07' W 061°46'0 0.0
2016-Feb-08 04:33N 17°07' W 061°46'0 0.0
2016-Feb-08 03:34N 17°07' W 061°46'0 0.0
2016-Feb-08 02:33N 17°07' W 061°46'0 0.0
2016-Feb-08 00:18N 17°07' W 061°46'0 0.0
2016-Feb-07 23:33N 17°07' W 061°46'0 0.0
2016-Feb-07 22:33N 17°07' W 061°46'0 0.0
2016-Feb-07 21:33N 17°07' W 061°46'  
2016-Feb-03 12:34N 17°07' W 061°46'0 0.0
2016-Feb-03 11:33N 17°07' W 061°46'0 0.0
2016-Feb-03 10:33N 17°07' W 061°46'0 0.0
2016-Feb-03 09:32N 17°07' W 061°46'0 0.0
2016-Feb-03 08:33N 17°07' W 061°46'0 0.0
2016-Feb-03 07:33N 17°07' W 061°46'0 0.0
2016-Feb-03 06:34N 17°07' W 061°46'0 0.0
2016-Feb-03 05:33N 17°07' W 061°46'0 0.0
2016-Feb-03 04:33N 17°07' W 061°46'0 0.0
2016-Feb-03 03:33N 17°07' W 061°46'0 0.0
2016-Feb-03 02:33N 17°07' W 061°46'0 0.0
2016-Feb-03 01:33N 17°07' W 061°46'0 0.0
2016-Feb-03 00:34N 17°07' W 061°46'0 0.0
2016-Feb-02 23:34N 17°07' W 061°46'0 0.0
2016-Feb-02 22:33N 17°07' W 061°46'0 0.0
2016-Feb-02 21:34N 17°07' W 061°46'0 0.0
2016-Feb-02 20:34N 17°07' W 061°46'0 0.0
2016-Feb-02 19:34N 17°07' W 061°46'0 0.0
2016-Feb-02 18:33N 17°07' W 061°46'0 0.0
2016-Feb-02 17:34N 17°07' W 061°46'0 0.0
2016-Feb-02 16:33N 17°07' W 061°46'0 0.0
2016-Feb-02 15:34N 17°07' W 061°46'0 0.0
2016-Feb-02 14:34N 17°07' W 061°46'0 0.0
2016-Feb-02 13:33N 17°07' W 061°46'0 0.0
2016-Feb-02 12:33N 17°07' W 061°46'0 0.0
2016-Feb-02 11:34N 17°07' W 061°46'0 0.0
2016-Feb-02 10:33N 17°07' W 061°46'0 0.0
2016-Feb-02 09:34N 17°07' W 061°46'0 0.0
2016-Feb-02 08:33N 17°07' W 061°46'0 0.0
2016-Feb-02 07:33N 17°07' W 061°46'0 0.0
2016-Feb-02 06:33N 17°07' W 061°46'0 0.0
2016-Feb-02 05:33N 17°07' W 061°46'0 0.0
2016-Feb-02 04:33N 17°07' W 061°46'0 0.0
2016-Feb-02 03:33N 17°07' W 061°46'0 0.0
2016-Feb-02 02:33N 17°07' W 061°46'0 0.0
2016-Feb-02 01:33N 17°07' W 061°46'0 0.0
2016-Feb-02 00:33N 17°07' W 061°46'0 0.0
2016-Feb-01 23:34N 17°07' W 061°46'0 0.0
2016-Feb-01 22:33N 17°07' W 061°46'0 0.0
2016-Feb-01 21:34N 17°07' W 061°46'0 0.0
2016-Feb-01 20:33N 17°07' W 061°46'0 0.0
2016-Feb-01 19:34N 17°07' W 061°46'0 0.0
2016-Feb-01 18:33N 17°07' W 061°46'0 0.0
2016-Feb-01 17:34N 17°07' W 061°46'0 0.0
2016-Feb-01 16:34N 17°07' W 061°46'0 0.0
2016-Feb-01 14:10N 17°07' W 061°46'0 0.0
2016-Feb-01 02:06N 17°07' W 061°46'0 0.0
2016-Feb-01 01:33N 17°07' W 061°46'  

Dump ship's entire track history